Time,TemperatureF,DewpointF,PressureIn,WindDirection,WindDirectionDegrees,WindSpeedMPH,WindSpeedGustMPH,Humidity,HourlyPrecipIn,Conditions,Clouds,dailyrainin,SoftwareType,DateUTC
2013-04-01 00:03:00,41.4,28.0,29.82,North,-999,0.0,0.0,59,0.00,,,-99.99,FreeWX 2.04,2013-04-01 04:03:00,
2013-04-01 00:13:00,41.0,28.2,29.82,North,-999,0.0,0.0,60,0.00,,,-99.99,FreeWX 2.04,2013-04-01 04:13:00,
2013-04-01 00:23:00,41.0,28.2,29.82,North,-999,0.0,0.0,60,0.00,,,-99.99,FreeWX 2.04,2013-04-01 04:23:00,
2013-04-01 00:33:00,40.8,28.4,29.82,North,-999,0.0,0.0,61,0.00,,,-99.99,FreeWX 2.04,2013-04-01 04:33:00,
2013-04-01 00:43:00,40.6,28.2,29.82,North,-999,0.0,3.1,61,0.00,,,-99.99,FreeWX 2.04,2013-04-01 04:43:00,
2013-04-01 00:53:00,40.6,28.6,29.82,North,-999,0.0,3.6,62,0.00,,,-99.99,FreeWX 2.04,2013-04-01 04:53:00,
2013-04-01 01:03:00,40.5,28.4,29.82,North,-999,0.0,0.0,62,0.00,,,-99.99,FreeWX 2.04,2013-04-01 05:03:00,
2013-04-01 01:13:00,40.8,29.7,29.82,North,-999,0.0,3.6,64,0.00,,,-99.99,FreeWX 2.04,2013-04-01 05:13:00,
2013-04-01 01:23:00,40.8,29.7,29.82,North,-999,0.0,0.0,64,0.00,,,-99.99,FreeWX 2.04,2013-04-01 05:23:00,
2013-04-01 01:33:00,41.4,30.9,29.82,North,-999,0.0,3.6,66,0.00,,,-99.99,FreeWX 2.04,2013-04-01 05:33:00,
2013-04-01 01:43:00,42.1,32.0,29.82,North,-999,0.0,4.0,67,0.00,,,-99.99,FreeWX 2.04,2013-04-01 05:43:00,
2013-04-01 01:53:00,42.4,32.7,29.82,North,-999,0.0,3.6,68,0.00,,,-99.99,FreeWX 2.04,2013-04-01 05:53:00,
2013-04-01 02:03:00,43.0,33.1,29.82,North,-999,0.0,4.5,68,0.00,,,-99.99,FreeWX 2.04,2013-04-01 06:03:00,
2013-04-01 02:13:00,43.7,34.2,29.82,North,-999,0.0,2.7,69,0.00,,,-99.99,FreeWX 2.04,2013-04-01 06:13:00,
2013-04-01 02:23:00,44.2,34.7,29.82,North,-999,0.0,0.0,69,0.00,,,-99.99,FreeWX 2.04,2013-04-01 06:23:00,
2013-04-01 02:33:00,44.8,35.6,29.82,North,-999,0.0,0.0,70,0.00,,,-99.99,FreeWX 2.04,2013-04-01 06:33:00,
2013-04-01 02:43:00,45.1,36.3,29.82,North,-999,0.0,4.5,71,0.00,,,-99.99,FreeWX 2.04,2013-04-01 06:43:00,
2013-04-01 02:53:00,45.3,36.5,29.82,North,-999,0.0,3.6,71,0.00,,,-99.99,FreeWX 2.04,2013-04-01 06:53:00,
2013-04-01 03:03:00,45.5,36.7,29.82,North,-999,0.0,4.0,71,0.00,,,-99.99,FreeWX 2.04,2013-04-01 07:03:00,
2013-04-01 03:13:00,45.9,37.0,29.82,NE,54,1.0,4.9,71,0.00,,,-99.99,FreeWX 2.04,2013-04-01 07:13:00,
2013-04-01 03:23:00,46.0,37.2,29.82,NNE,32,1.0,5.4,71,0.00,,,-99.99,FreeWX 2.04,2013-04-01 07:23:00,
2013-04-01 03:33:00,46.2,37.8,29.82,NE,52,2.0,4.9,72,0.00,,,-99.99,FreeWX 2.04,2013-04-01 07:33:00,
2013-04-01 03:43:00,46.4,37.9,29.82,North,-999,0.0,5.4,72,0.00,,,-99.99,FreeWX 2.04,2013-04-01 07:43:00,
2013-04-01 03:53:00,46.2,37.8,29.82,NNE,23,1.0,4.9,72,0.00,,,-99.99,FreeWX 2.04,2013-04-01 07:53:00,
2013-04-01 04:03:00,46.2,37.4,29.82,NE,45,1.0,4.0,71,0.00,,,-99.99,FreeWX 2.04,2013-04-01 08:03:00,
2013-04-01 04:13:00,46.4,37.6,29.82,NNE,25,2.0,5.8,71,0.00,,,-99.99,FreeWX 2.04,2013-04-01 08:13:00,
2013-04-01 04:23:00,46.6,38.1,29.82,North,11,1.0,4.9,72,0.00,,,-99.99,FreeWX 2.04,2013-04-01 08:23:00,
2013-04-01 04:33:00,46.8,37.9,29.82,ENE,71,1.0,4.9,71,0.00,,,-99.99,FreeWX 2.04,2013-04-01 08:33:00,
2013-04-01 04:43:00,46.8,37.9,29.82,North,-999,0.0,4.9,71,0.00,,,-99.99,FreeWX 2.04,2013-04-01 08:43:00,
2013-04-01 04:53:00,46.6,37.8,29.82,North,-999,0.0,0.0,71,0.00,,,-99.99,FreeWX 2.04,2013-04-01 08:53:00,
2013-04-01 05:03:00,46.2,37.0,29.82,North,-999,0.0,3.6,70,0.00,,,-99.99,FreeWX 2.04,2013-04-01 09:03:00,
2013-04-01 05:14:00,46.2,37.0,29.82,North,-999,0.0,2.7,70,0.00,,,-99.99,FreeWX 2.04,2013-04-01 09:14:00,
2013-04-01 05:24:00,46.0,36.9,29.82,North,-999,0.0,0.0,70,0.00,,,-99.99,FreeWX 2.04,2013-04-01 09:24:00,
2013-04-01 05:34:00,46.0,36.9,29.82,North,-999,0.0,0.0,70,0.00,,,-99.99,FreeWX 2.04,2013-04-01 09:34:00,
2013-04-01 05:44:00,45.9,36.7,29.82,North,-999,0.0,0.0,70,0.00,,,-99.99,FreeWX 2.04,2013-04-01 09:44:00,
2013-04-01 05:54:00,45.9,36.7,29.82,North,-999,0.0,0.0,70,0.00,,,-99.99,FreeWX 2.04,2013-04-01 09:54:00,
2013-04-01 06:04:00,45.9,36.7,29.82,North,-999,0.0,4.5,70,0.00,,,-99.99,FreeWX 2.04,2013-04-01 10:04:00,
2013-04-01 06:14:00,45.9,37.0,29.82,NNE,32,2.0,5.8,71,0.00,,,-99.99,FreeWX 2.04,2013-04-01 10:14:00,
2013-04-01 06:24:00,45.9,37.0,29.82,NE,35,1.0,5.8,71,0.00,,,-99.99,FreeWX 2.04,2013-04-01 10:24:00,
2013-04-01 06:34:00,45.9,37.0,29.85,North,-999,0.0,4.5,71,0.00,,,-99.99,FreeWX 2.04,2013-04-01 10:34:00,
2013-04-01 06:44:00,46.2,37.8,29.85,ENE,77,1.0,4.5,72,0.00,,,-99.99,FreeWX 2.04,2013-04-01 10:44:00,
2013-04-01 06:54:00,46.4,37.9,29.85,NE,52,1.0,4.0,72,0.00,,,-99.99,FreeWX 2.04,2013-04-01 10:54:00,
2013-04-01 07:04:00,46.4,37.9,29.85,NE,46,2.0,5.8,72,0.00,,,-99.99,FreeWX 2.04,2013-04-01 11:04:00,
2013-04-01 07:14:00,46.6,38.1,29.85,North,-999,0.0,5.4,72,0.00,,,-99.99,FreeWX 2.04,2013-04-01 11:14:00,
2013-04-01 07:24:00,46.8,38.3,29.85,North,-999,0.0,4.5,72,0.00,,,-99.99,FreeWX 2.04,2013-04-01 11:24:00,
2013-04-01 07:34:00,46.9,38.5,29.85,North,-999,0.0,4.5,72,0.00,,,-99.99,FreeWX 2.04,2013-04-01 11:34:00,
2013-04-01 07:44:00,47.1,38.5,29.85,North,8,1.0,4.0,72,0.00,,,-99.99,FreeWX 2.04,2013-04-01 11:44:00,
2013-04-01 07:54:00,47.1,38.5,29.88,North,-999,0.0,5.4,72,0.00,,,-99.99,FreeWX 2.04,2013-04-01 11:54:00,
2013-04-01 08:04:00,47.3,38.7,29.88,North,-999,0.0,4.5,72,0.00,,,-99.99,FreeWX 2.04,2013-04-01 12:04:00,
2013-04-01 08:14:00,47.3,38.3,29.88,North,4,1.0,4.9,71,0.00,,,-99.99,FreeWX 2.04,2013-04-01 12:14:00,
2013-04-01 08:24:00,47.5,37.8,29.88,North,-999,0.0,4.5,69,0.00,,,-99.99,FreeWX 2.04,2013-04-01 12:24:00,
2013-04-01 08:34:00,47.7,37.6,29.88,North,-999,0.0,0.0,68,0.00,,,-99.99,FreeWX 2.04,2013-04-01 12:34:00,
2013-04-01 08:44:00,48.0,36.0,29.88,East,89,2.0,7.4,63,0.00,,,-99.99,FreeWX 2.04,2013-04-01 12:44:00,
2013-04-01 08:54:00,48.2,31.8,29.91,ESE,111,3.0,6.9,53,0.00,,,-99.99,FreeWX 2.04,2013-04-01 12:54:00,
2013-04-01 09:04:00,47.5,24.4,29.91,SE,138,4.0,6.9,40,0.00,,,-99.99,FreeWX 2.04,2013-04-01 13:04:00,
2013-04-01 09:14:00,47.7,23.4,29.91,SSE,147,4.0,7.4,38,0.00,,,-99.99,FreeWX 2.04,2013-04-01 13:14:00,
2013-04-01 09:24:00,47.7,22.6,29.94,ESE,117,4.0,6.3,37,0.00,,,-99.99,FreeWX 2.04,2013-04-01 13:24:00,
2013-04-01 09:34:00,47.7,22.1,29.91,SE,128,3.0,5.8,36,0.00,,,-99.99,FreeWX 2.04,2013-04-01 13:34:00,
2013-04-01 09:44:00,48.4,22.6,29.91,ESE,118,3.0,6.7,36,0.00,,,-99.99,FreeWX 2.04,2013-04-01 13:44:00,
2013-04-01 09:54:00,49.6,21.0,29.94,SE,140,3.0,6.9,32,0.00,,,-99.99,FreeWX 2.04,2013-04-01 13:54:00,
2013-04-01 10:04:00,50.7,18.0,29.94,NNE,28,4.0,6.3,27,0.00,,,-99.99,FreeWX 2.04,2013-04-01 14:04:00,
2013-04-01 10:14:00,50.9,18.1,29.94,ESE,106,3.0,6.9,27,0.00,,,-99.99,FreeWX 2.04,2013-04-01 14:14:00,
2013-04-01 10:24:00,51.4,17.8,29.94,SE,135,2.0,5.8,26,0.00,,,-99.99,FreeWX 2.04,2013-04-01 14:24:00,
2013-04-01 10:34:00,51.6,17.8,29.94,SSE,154,4.0,6.9,26,0.00,,,-99.99,FreeWX 2.04,2013-04-01 14:34:00,
2013-04-01 10:44:00,52.0,13.3,29.94,SE,145,4.0,6.7,21,0.00,,,-99.99,FreeWX 2.04,2013-04-01 14:44:00,
2013-04-01 10:54:00,50.9,12.4,29.94,SE,132,4.0,7.4,21,0.00,,,-99.99,FreeWX 2.04,2013-04-01 14:54:00,
2013-04-01 11:04:00,50.4,11.8,29.94,SE,133,3.0,6.7,21,0.00,,,-99.99,FreeWX 2.04,2013-04-01 15:04:00,
2013-04-01 11:14:00,50.9,12.4,29.94,SE,141,3.0,5.8,21,0.00,,,-99.99,FreeWX 2.04,2013-04-01 15:14:00,
2013-04-01 11:24:00,50.2,11.8,29.97,ENE,64,4.0,7.8,21,0.00,,,-99.99,FreeWX 2.04,2013-04-01 15:24:00,
2013-04-01 11:34:00,49.5,11.1,29.97,East,97,2.0,6.7,21,0.00,,,-99.99,FreeWX 2.04,2013-04-01 15:34:00,
2013-04-01 11:44:00,48.7,10.6,29.97,SE,127,3.0,5.8,21,0.00,,,-99.99,FreeWX 2.04,2013-04-01 15:44:00,
2013-04-01 11:54:00,48.0,12.9,29.97,ESE,121,4.0,7.8,24,0.00,,,-99.99,FreeWX 2.04,2013-04-01 15:54:00,
2013-04-01 12:05:00,47.5,15.3,29.97,ESE,114,4.0,6.9,27,0.00,,,-99.99,FreeWX 2.04,2013-04-01 16:05:00,
2013-04-01 12:15:00,46.6,16.0,29.97,SE,133,3.0,5.8,29,0.00,,,-99.99,FreeWX 2.04,2013-04-01 16:15:00,
2013-04-01 12:25:00,45.5,16.7,30.00,SE,142,3.0,6.7,31,0.00,,,-99.99,FreeWX 2.04,2013-04-01 16:25:00,
2013-04-01 12:35:00,45.3,18.0,30.00,SE,127,4.0,7.4,33,0.00,,,-99.99,FreeWX 2.04,2013-04-01 16:35:00,
2013-04-01 12:45:00,45.9,18.3,30.00,East,91,3.0,6.9,33,0.00,,,-99.99,FreeWX 2.04,2013-04-01 16:45:00,
2013-04-01 12:55:00,46.9,18.7,30.00,NE,51,4.0,6.9,32,0.00,,,-99.99,FreeWX 2.04,2013-04-01 16:55:00,
2013-04-01 13:05:00,46.9,17.1,30.00,NE,38,4.0,9.2,30,0.00,,,-99.99,FreeWX 2.04,2013-04-01 17:05:00,
2013-04-01 13:15:00,47.7,16.2,30.00,NE,36,3.0,6.9,28,0.00,,,-99.99,FreeWX 2.04,2013-04-01 17:15:00,
2013-04-01 13:25:00,47.3,15.8,30.00,ENE,66,4.0,9.2,28,0.00,,,-99.99,FreeWX 2.04,2013-04-01 17:25:00,
2013-04-01 13:35:00,46.8,15.4,30.00,NE,48,4.0,8.7,28,0.00,,,-99.99,FreeWX 2.04,2013-04-01 17:35:00,
2013-04-01 13:45:00,46.8,16.2,30.00,NNE,23,4.0,8.7,29,0.00,,,-99.99,FreeWX 2.04,2013-04-01 17:45:00,
2013-04-01 13:55:00,44.8,15.3,30.00,SSE,156,3.0,7.4,30,0.00,,,-99.99,FreeWX 2.04,2013-04-01 17:55:00,
2013-04-01 14:05:00,43.0,17.2,30.00,SSE,152,4.0,6.9,35,0.00,,,-99.99,FreeWX 2.04,2013-04-01 18:05:00,
2013-04-01 14:15:00,42.4,17.4,30.00,SE,138,4.0,7.4,36,0.00,,,-99.99,FreeWX 2.04,2013-04-01 18:15:00,
2013-04-01 14:25:00,42.8,19.0,30.03,ESE,119,4.0,8.7,38,0.00,,,-99.99,FreeWX 2.04,2013-04-01 18:25:00,
2013-04-01 14:35:00,43.5,19.6,30.03,SE,124,3.0,6.9,38,0.00,,,-99.99,FreeWX 2.04,2013-04-01 18:35:00,
2013-04-01 14:45:00,45.3,18.7,30.03,SE,134,3.0,6.7,34,0.00,,,-99.99,FreeWX 2.04,2013-04-01 18:45:00,
2013-04-01 14:55:00,47.1,17.2,30.03,NE,39,3.0,6.7,30,0.00,,,-99.99,FreeWX 2.04,2013-04-01 18:55:00,
2013-04-01 15:05:00,50.2,16.7,30.00,ESE,102,4.0,7.4,26,0.00,,,-99.99,FreeWX 2.04,2013-04-01 19:05:00,
2013-04-01 15:15:00,48.7,15.4,30.00,SSE,161,3.0,6.3,26,0.00,,,-99.99,FreeWX 2.04,2013-04-01 19:15:00,
2013-04-01 15:25:00,50.9,15.4,30.00,NE,52,3.0,6.9,24,0.00,,,-99.99,FreeWX 2.04,2013-04-01 19:25:00,
2013-04-01 15:35:00,53.1,13.1,30.00,NNE,23,4.0,7.4,20,0.00,,,-99.99,FreeWX 2.04,2013-04-01 19:35:00,
2013-04-01 15:45:00,51.6,12.9,30.00,SE,130,4.0,8.7,21,0.00,,,-99.99,FreeWX 2.04,2013-04-01 19:45:00,
2013-04-01 15:55:00,48.9,10.8,30.00,SSE,147,4.0,7.4,21,0.00,,,-99.99,FreeWX 2.04,2013-04-01 19:55:00,
2013-04-01 16:05:00,49.3,10.9,30.00,SSE,153,4.0,6.7,21,0.00,,,-99.99,FreeWX 2.04,2013-04-01 20:05:00,
2013-04-01 16:15:00,48.7,10.6,30.00,SE,145,4.0,8.3,21,0.00,,,-99.99,FreeWX 2.04,2013-04-01 20:15:00,
2013-04-01 16:25:00,48.9,10.8,30.00,SE,140,2.0,5.4,21,0.00,,,-99.99,FreeWX 2.04,2013-04-01 20:25:00,
2013-04-01 16:35:00,48.7,10.6,30.00,SE,146,3.0,6.3,21,0.00,,,-99.99,FreeWX 2.04,2013-04-01 20:35:00,
2013-04-01 16:45:00,50.7,12.2,30.00,ESE,104,3.0,5.4,21,0.00,,,-99.99,FreeWX 2.04,2013-04-01 20:45:00,
2013-04-01 16:55:00,52.3,13.6,30.00,ENE,64,5.0,9.2,21,0.00,,,-99.99,FreeWX 2.04,2013-04-01 20:55:00,
2013-04-01 17:05:00,53.2,13.3,30.00,NNE,33,5.0,11.2,20,0.00,,,-99.99,FreeWX 2.04,2013-04-01 21:05:00,
2013-04-01 17:15:00,52.5,13.8,30.00,ENE,76,4.0,7.8,21,0.00,,,-99.99,FreeWX 2.04,2013-04-01 21:15:00,
2013-04-01 17:25:00,50.0,11.7,30.00,SE,140,4.0,6.3,21,0.00,,,-99.99,FreeWX 2.04,2013-04-01 21:25:00,
2013-04-01 17:35:00,49.1,10.9,30.00,SE,137,3.0,5.8,21,0.00,,,-99.99,FreeWX 2.04,2013-04-01 21:35:00,
2013-04-01 17:45:00,49.8,11.5,30.00,ESE,109,2.0,5.4,21,0.00,,,-99.99,FreeWX 2.04,2013-04-01 21:45:00,
2013-04-01 17:55:00,49.6,11.3,30.00,NE,55,3.0,5.8,21,0.00,,,-99.99,FreeWX 2.04,2013-04-01 21:55:00,
2013-04-01 18:05:00,48.9,10.8,30.00,ESE,121,4.0,6.3,21,0.00,,,-99.99,FreeWX 2.04,2013-04-01 22:05:00,
2013-04-01 18:15:00,48.6,10.4,30.00,ESE,114,3.0,6.9,21,0.00,,,-99.99,FreeWX 2.04,2013-04-01 22:15:00,
2013-04-01 18:25:00,48.6,10.4,30.00,ESE,120,3.0,5.8,21,0.00,,,-99.99,FreeWX 2.04,2013-04-01 22:25:00,
2013-04-01 18:35:00,48.2,10.0,30.00,East,101,3.0,6.3,21,0.00,,,-99.99,FreeWX 2.04,2013-04-01 22:35:00,
2013-04-01 18:45:00,47.8,9.9,30.00,ESE,116,3.0,6.3,21,0.00,,,-99.99,FreeWX 2.04,2013-04-01 22:45:00,
2013-04-01 18:55:00,47.7,9.7,30.00,East,95,2.0,4.5,21,0.00,,,-99.99,FreeWX 2.04,2013-04-01 22:55:00,
2013-04-01 19:05:00,47.7,9.7,30.00,North,356,2.0,5.8,21,0.00,,,-99.99,FreeWX 2.04,2013-04-01 23:05:00,
2013-04-01 19:15:00,47.3,9.3,30.00,ESE,105,1.0,5.8,21,0.00,,,-99.99,FreeWX 2.04,2013-04-01 23:15:00,
2013-04-01 19:25:00,47.1,10.2,30.00,ESE,110,2.0,4.9,22,0.00,,,-99.99,FreeWX 2.04,2013-04-01 23:25:00,
2013-04-01 19:35:00,46.8,10.0,30.00,ESE,121,2.0,5.4,22,0.00,,,-99.99,FreeWX 2.04,2013-04-01 23:35:00,
2013-04-01 19:45:00,46.0,9.3,30.00,North,-999,0.0,2.7,22,0.00,,,-99.99,FreeWX 2.04,2013-04-01 23:45:00,
2013-04-01 19:55:00,45.1,8.6,30.00,SE,129,1.0,3.6,22,0.00,,,-99.99,FreeWX 2.04,2013-04-01 23:55:00,
2013-04-01 20:05:00,44.2,7.9,30.03,ESE,117,3.0,4.9,22,0.00,,,-99.99,FreeWX 2.04,2013-04-02 00:05:00,
2013-04-01 20:15:00,43.7,7.3,30.03,ESE,115,2.0,4.0,22,0.00,,,-99.99,FreeWX 2.04,2013-04-02 00:15:00,
2013-04-01 20:25:00,43.0,7.7,30.03,SE,133,1.0,3.1,23,0.00,,,-99.99,FreeWX 2.04,2013-04-02 00:25:00,
2013-04-01 20:35:00,42.3,7.2,30.03,SE,133,1.0,3.1,23,0.00,,,-99.99,FreeWX 2.04,2013-04-02 00:35:00,
2013-04-01 20:45:00,41.5,6.6,30.03,North,-999,0.0,2.7,23,0.00,,,-99.99,FreeWX 2.04,2013-04-02 00:45:00,
2013-04-01 20:55:00,41.2,6.3,30.03,North,-999,0.0,0.0,23,0.00,,,-99.99,FreeWX 2.04,2013-04-02 00:55:00,
2013-04-01 21:05:00,40.5,5.5,30.03,North,-999,0.0,3.1,23,0.00,,,-99.99,FreeWX 2.04,2013-04-02 01:05:00,
2013-04-01 21:15:00,39.9,5.2,30.03,North,-999,0.0,0.0,23,0.00,,,-99.99,FreeWX 2.04,2013-04-02 01:15:00,
2013-04-01 21:25:00,39.4,4.6,30.03,North,-999,0.0,0.0,23,0.00,,,-99.99,FreeWX 2.04,2013-04-02 01:25:00,
2013-04-01 21:35:00,38.8,4.3,30.06,North,-999,0.0,0.0,23,0.00,,,-99.99,FreeWX 2.04,2013-04-02 01:35:00,
2013-04-01 21:45:00,38.3,4.6,30.06,North,-999,0.0,0.0,24,0.00,,,-99.99,FreeWX 2.04,2013-04-02 01:45:00,
2013-04-01 21:55:00,37.9,6.1,30.06,North,-999,0.0,0.0,26,0.00,,,-99.99,FreeWX 2.04,2013-04-02 01:55:00,
2013-04-01 22:05:00,37.4,5.7,30.06,North,-999,0.0,0.0,26,0.00,,,-99.99,FreeWX 2.04,2013-04-02 02:05:00,
2013-04-01 22:15:00,36.7,5.0,30.06,North,-999,0.0,0.0,26,0.00,,,-99.99,FreeWX 2.04,2013-04-02 02:15:00,
2013-04-01 22:26:00,36.3,7.9,30.06,North,-999,0.0,0.0,30,0.00,,,-99.99,FreeWX 2.04,2013-04-02 02:26:00,
2013-04-01 22:36:00,36.0,7.5,30.06,North,-999,0.0,0.0,30,0.00,,,-99.99,FreeWX 2.04,2013-04-02 02:36:00,
2013-04-01 22:46:00,35.4,7.2,30.06,North,-999,0.0,0.0,30,0.00,,,-99.99,FreeWX 2.04,2013-04-02 02:46:00,
2013-04-01 22:56:00,34.9,6.6,30.06,North,-999,0.0,0.0,30,0.00,,,-99.99,FreeWX 2.04,2013-04-02 02:56:00,
2013-04-01 23:06:00,34.7,7.2,30.06,North,-999,0.0,0.0,31,0.00,,,-99.99,FreeWX 2.04,2013-04-02 03:06:00,
2013-04-01 23:16:00,34.3,6.8,30.06,North,-999,0.0,3.6,31,0.00,,,-99.99,FreeWX 2.04,2013-04-02 03:16:00,
2013-04-01 23:26:00,34.0,6.6,30.06,SE,133,2.0,3.6,31,0.00,,,-99.99,FreeWX 2.04,2013-04-02 03:26:00,
2013-04-01 23:36:00,33.6,6.3,30.06,North,-999,0.0,0.0,31,0.00,,,-99.99,FreeWX 2.04,2013-04-02 03:36:00,
2013-04-01 23:46:00,32.9,5.5,30.06,SE,133,1.0,3.6,31,0.00,,,-99.99,FreeWX 2.04,2013-04-02 03:46:00,
2013-04-01 23:56:00,32.7,6.8,30.06,North,-999,0.0,3.6,33,0.00,,,-99.99,FreeWX 2.04,2013-04-02 03:56:00,